createdAt,value
2019-06-01T00:02:15.844Z,15.12
2019-06-01T00:04:45.403Z,15.11
2019-06-01T00:07:16.232Z,15.01
2019-06-01T00:09:47.134Z,14.96
2019-06-01T00:12:16.809Z,14.90
2019-06-01T00:14:48.057Z,14.86
2019-06-01T00:17:17.610Z,14.87
2019-06-01T00:19:48.179Z,14.91
2019-06-01T00:22:17.763Z,14.89
2019-06-01T00:24:48.066Z,14.85
2019-06-01T00:27:17.630Z,14.84
2019-06-01T00:29:47.177Z,14.84
2019-06-01T00:32:16.654Z,14.84
2019-06-01T00:34:46.146Z,14.88
2019-06-01T00:37:15.642Z,14.88
2019-06-01T00:39:45.827Z,14.91
2019-06-01T00:42:15.413Z,14.91
2019-06-01T00:44:44.899Z,14.93
2019-06-01T00:47:14.423Z,14.96
2019-06-01T00:49:44.701Z,15.07
2019-06-01T00:52:14.356Z,15.09
2019-06-01T00:54:45.168Z,15.05
2019-06-01T00:57:14.912Z,14.99
2019-06-01T00:59:44.383Z,14.91
2019-06-01T01:02:13.896Z,14.89
2019-06-01T01:04:44.290Z,14.90
2019-06-01T01:07:13.957Z,14.86
2019-06-01T01:09:44.728Z,14.85
2019-06-01T01:12:14.386Z,14.84
2019-06-01T01:14:45.081Z,14.83
2019-06-01T01:17:14.694Z,14.84
2019-06-01T01:19:44.167Z,14.82
2019-06-01T01:22:13.644Z,14.82
2019-06-01T01:24:43.241Z,14.80
2019-06-01T01:27:12.830Z,14.80
2019-06-01T01:29:42.341Z,14.79
2019-06-01T01:32:11.982Z,14.77
2019-06-01T01:34:41.536Z,14.73
2019-06-01T01:37:10.999Z,14.71
2019-06-01T01:39:40.494Z,14.70
2019-06-01T01:42:09.968Z,14.72
2019-06-01T01:44:39.467Z,14.77
2019-06-01T01:47:08.985Z,14.79
2019-06-01T01:49:38.449Z,14.82
2019-06-01T01:52:07.990Z,14.86
2019-06-01T01:54:37.705Z,14.95
2019-06-01T01:57:07.349Z,14.97
2019-06-01T01:59:36.845Z,14.93
2019-06-01T02:02:06.340Z,14.95
2019-06-01T02:04:35.933Z,14.90
2019-06-01T02:07:05.506Z,14.88
2019-06-01T02:09:35.102Z,14.91
2019-06-01T02:12:04.589Z,14.88
2019-06-01T02:14:34.165Z,14.82
2019-06-01T02:17:03.677Z,14.80
2019-06-01T02:19:36.438Z,14.77
2019-06-01T02:22:04.354Z,14.77
2019-06-01T02:24:34.054Z,14.78
2019-06-01T02:27:03.466Z,14.83
2019-06-01T02:29:32.927Z,14.86
2019-06-01T02:32:04.200Z,14.87
2019-06-01T02:34:33.720Z,14.90
2019-06-01T02:37:04.543Z,14.95
2019-06-01T02:39:34.188Z,14.94
2019-06-01T02:42:05.368Z,14.92
2019-06-01T02:44:34.861Z,14.90
2019-06-01T02:47:06.198Z,14.81
2019-06-01T02:49:35.560Z,14.78
2019-06-01T02:52:05.734Z,14.71
2019-06-01T02:54:35.244Z,14.69
2019-06-01T02:57:04.716Z,14.64
2019-06-01T02:59:34.186Z,14.61
2019-06-01T03:02:08.814Z,14.64
2019-06-01T03:04:34.965Z,14.71
2019-06-01T03:07:05.528Z,14.71
2019-06-01T03:09:35.988Z,14.76
2019-06-01T03:12:06.333Z,14.80
2019-06-01T03:14:36.109Z,14.79
2019-06-01T03:17:05.938Z,14.73
2019-06-01T03:19:35.663Z,14.73
2019-06-01T03:22:05.684Z,14.72
2019-06-01T03:24:37.110Z,14.70
2019-06-01T03:27:06.586Z,14.71
2019-06-01T03:29:39.215Z,14.69
2019-06-01T03:32:33.181Z,14.70
2019-06-01T03:34:40.309Z,14.70
2019-06-01T03:37:09.837Z,14.70
2019-06-01T03:39:39.346Z,14.69
2019-06-01T03:42:09.515Z,14.70
2019-06-01T03:44:38.998Z,14.73
2019-06-01T03:47:09.628Z,14.78
2019-06-01T03:49:39.431Z,14.86
2019-06-01T03:52:08.973Z,14.91
2019-06-01T03:54:38.496Z,14.93
2019-06-01T03:57:09.106Z,14.95
2019-06-01T03:59:38.741Z,14.96
2019-06-01T04:02:09.193Z,14.98
2019-06-01T04:04:38.808Z,14.97
2019-06-01T04:07:08.361Z,14.97
2019-06-01T04:09:37.865Z,14.97
2019-06-01T04:12:07.696Z,14.95
2019-06-01T04:14:37.263Z,14.96
2019-06-01T04:17:08.002Z,14.98
2019-06-01T04:19:37.725Z,15.05
2019-06-01T04:22:08.006Z,15.14
2019-06-01T04:24:37.629Z,15.22
2019-06-01T04:27:08.216Z,15.42
2019-06-01T04:29:37.756Z,15.59
2019-06-01T04:32:08.564Z,15.70
2019-06-01T04:34:38.335Z,15.78
2019-06-01T04:37:09.121Z,15.75
2019-06-01T04:39:38.689Z,15.91
2019-06-01T04:42:08.234Z,16.00
2019-06-01T04:44:37.768Z,16.14
2019-06-01T04:47:09.151Z,16.24
2019-06-01T04:49:38.696Z,16.30
2019-06-01T04:52:08.861Z,16.35
2019-06-01T04:54:38.554Z,16.34
2019-06-01T04:57:08.932Z,16.34
2019-06-01T04:59:38.638Z,16.47
2019-06-01T05:02:09.236Z,16.54
2019-06-01T05:04:38.901Z,16.59
2019-06-01T05:07:09.278Z,16.57
2019-06-01T05:09:38.899Z,16.67
2019-06-01T05:12:09.341Z,16.84
2019-06-01T05:14:39.016Z,17.02
2019-06-01T05:17:10.035Z,17.17
2019-06-01T05:19:39.683Z,17.28
2019-06-01T05:22:10.409Z,17.37
2019-06-01T05:24:43.032Z,17.42
2019-06-01T05:27:13.115Z,17.44
2019-06-01T05:29:42.762Z,17.39
2019-06-01T05:32:12.628Z,17.52
2019-06-01T05:34:42.218Z,17.45
2019-06-01T05:37:12.356Z,17.45
2019-06-01T05:39:41.999Z,17.54
2019-06-01T05:42:12.498Z,17.67
2019-06-01T05:44:42.130Z,17.74
2019-06-01T05:47:12.170Z,17.86
2019-06-01T05:49:41.678Z,18.04
2019-06-01T05:52:12.322Z,18.13
2019-06-01T05:54:41.907Z,18.23
2019-06-01T05:57:12.593Z,18.33
2019-06-01T05:59:42.133Z,18.37
2019-06-01T06:02:11.630Z,18.55
2019-06-01T06:04:41.100Z,18.68
2019-06-01T06:07:10.689Z,18.84
2019-06-01T06:09:40.276Z,19.04
2019-06-01T06:12:11.171Z,19.16
2019-06-01T06:14:41.020Z,19.26
2019-06-01T06:17:13.700Z,19.37
2019-06-01T06:19:41.755Z,19.38
2019-06-01T06:22:11.994Z,19.46
2019-06-01T06:24:41.608Z,19.42
2019-06-01T06:27:11.068Z,19.47
2019-06-01T06:29:40.567Z,19.64
2019-06-01T06:32:10.055Z,19.75
2019-06-01T06:34:39.522Z,19.83
2019-06-01T06:37:09.016Z,19.92
2019-06-01T06:39:38.635Z,20.07
2019-06-01T06:42:08.216Z,20.18
2019-06-01T06:44:37.917Z,20.35
2019-06-01T06:47:07.383Z,20.51
2019-06-01T06:49:36.870Z,20.60
2019-06-01T06:52:06.369Z,20.69
2019-06-01T06:54:35.939Z,20.76
2019-06-01T06:57:05.417Z,20.82
2019-06-01T06:59:34.922Z,20.97
2019-06-01T07:02:04.388Z,20.97
2019-06-01T07:04:35.706Z,21.07
2019-06-01T07:07:05.253Z,21.08
2019-06-01T07:09:34.765Z,20.78
2019-06-01T07:12:04.249Z,20.79
2019-06-01T07:14:33.835Z,20.74
2019-06-01T07:17:03.309Z,20.71
2019-06-01T07:19:32.795Z,20.74
2019-06-01T07:22:02.279Z,20.78
2019-06-01T07:24:32.154Z,20.81
2019-06-01T07:27:01.899Z,20.90
2019-06-01T07:29:32.385Z,20.87
2019-06-01T07:32:01.985Z,20.90
2019-06-01T07:34:41.216Z,21.05
2019-06-01T07:37:02.703Z,21.15
2019-06-01T07:39:33.508Z,21.19
2019-06-01T07:42:03.456Z,21.18
2019-06-01T07:44:33.334Z,21.33
2019-06-01T07:47:02.844Z,21.48
2019-06-01T07:49:32.448Z,21.45
2019-06-01T07:52:12.133Z,21.51
2019-06-01T07:54:33.264Z,21.68
2019-06-01T07:57:02.769Z,21.94
2019-06-01T07:59:32.596Z,22.15
2019-06-01T08:02:02.250Z,22.40
2019-06-01T08:04:49.965Z,22.62
2019-06-01T08:07:03.146Z,22.86
2019-06-01T08:09:32.789Z,23.19
2019-06-01T08:12:02.398Z,23.23
2019-06-01T08:14:32.863Z,23.06
2019-06-01T08:17:02.562Z,23.10
2019-06-01T08:19:32.137Z,23.11
2019-06-01T08:22:01.940Z,23.27
2019-06-01T08:24:32.441Z,23.64
2019-06-01T08:27:02.145Z,23.92
2019-06-01T08:29:32.798Z,24.22
2019-06-01T08:32:02.482Z,24.41
2019-06-01T08:34:33.066Z,24.67
2019-06-01T08:37:02.626Z,24.96
2019-06-01T08:39:34.069Z,25.11
2019-06-01T08:42:03.445Z,25.09
2019-06-01T08:44:33.761Z,25.24
2019-06-01T08:47:03.482Z,25.65
2019-06-01T08:49:34.360Z,26.24
2019-06-01T08:52:04.066Z,26.36
2019-06-01T08:54:34.309Z,26.23
2019-06-01T08:57:04.046Z,26.06
2019-06-01T08:59:34.573Z,26.07
2019-06-01T09:02:04.306Z,26.11
2019-06-01T09:04:34.943Z,26.14
2019-06-01T09:07:04.660Z,26.14
2019-06-01T09:09:35.199Z,26.39
2019-06-01T09:12:05.141Z,26.53
2019-06-01T09:14:35.554Z,26.69
2019-06-01T09:17:05.264Z,26.78
2019-06-01T09:19:35.684Z,26.63
2019-06-01T09:22:05.330Z,26.84
2019-06-01T09:24:36.124Z,26.94
2019-06-01T09:27:05.909Z,26.80
2019-06-01T09:29:36.152Z,26.65
2019-06-01T09:32:10.501Z,26.79
2019-06-01T09:34:37.076Z,26.96
2019-06-01T09:37:06.552Z,26.99
2019-06-01T09:39:37.274Z,26.92
2019-06-01T09:42:06.940Z,26.64
2019-06-01T09:44:37.376Z,26.50
2019-06-01T09:47:07.053Z,26.46
2019-06-01T09:49:37.900Z,26.64
2019-06-01T09:52:11.979Z,26.65
2019-06-01T09:54:38.869Z,26.65
2019-06-01T09:57:08.352Z,27.12
2019-06-01T09:59:38.174Z,27.52
2019-06-01T10:02:07.814Z,28.05
2019-06-01T10:04:38.686Z,28.67
2019-06-01T10:07:08.474Z,28.89
2019-06-01T10:09:38.218Z,28.33
2019-06-01T10:12:07.784Z,28.06
2019-06-01T10:14:39.283Z,27.80
2019-06-01T10:17:08.492Z,27.36
2019-06-01T10:19:38.894Z,26.99
2019-06-01T10:22:08.551Z,27.19
2019-06-01T10:24:39.181Z,27.97
2019-06-01T10:27:08.707Z,28.37
2019-06-01T10:29:39.966Z,28.64
2019-06-01T10:32:09.458Z,28.25
2019-06-01T10:34:39.898Z,28.30
2019-06-01T10:37:09.507Z,28.34
2019-06-01T10:39:39.389Z,28.69
2019-06-01T10:42:09.132Z,28.98
2019-06-01T10:44:44.029Z,28.57
2019-06-01T10:47:09.827Z,28.32
2019-06-01T10:49:40.125Z,28.68
2019-06-01T10:52:09.782Z,29.07
2019-06-01T10:54:40.249Z,29.42
2019-06-01T10:57:11.213Z,29.63
2019-06-01T10:59:40.720Z,29.77
2019-06-01T11:02:10.323Z,30.30
2019-06-01T11:04:41.031Z,30.40
2019-06-01T11:07:10.791Z,30.42
2019-06-01T11:09:41.184Z,30.49
2019-06-01T11:12:10.706Z,30.96
2019-06-01T11:14:41.315Z,31.31
2019-06-01T11:17:10.953Z,31.36
2019-06-01T11:19:42.060Z,31.26
2019-06-01T11:22:11.762Z,31.07
2019-06-01T11:24:41.557Z,31.53
2019-06-01T11:27:11.286Z,32.29
2019-06-01T11:29:49.145Z,32.28
2019-06-01T11:32:11.982Z,31.96
2019-06-01T11:34:42.406Z,31.45
2019-06-01T11:37:15.224Z,30.90
2019-06-01T11:39:44.698Z,30.83
2019-06-01T11:42:14.333Z,31.35
2019-06-01T11:44:44.817Z,31.36
2019-06-01T11:47:14.510Z,31.37
2019-06-01T11:49:45.070Z,30.92
2019-06-01T11:52:14.664Z,30.28
2019-06-01T11:54:45.340Z,30.10
2019-06-01T11:57:15.082Z,30.21
2019-06-01T11:59:45.683Z,30.76
2019-06-01T12:02:15.333Z,31.11
2019-06-01T12:04:46.233Z,30.88
2019-06-01T12:07:17.857Z,30.03
2019-06-01T12:09:47.239Z,30.01
2019-06-01T12:12:16.794Z,30.97
2019-06-01T12:14:46.795Z,31.30
2019-06-01T12:17:16.419Z,31.25
2019-06-01T12:19:46.939Z,31.42
2019-06-01T12:22:16.693Z,31.01
2019-06-01T12:24:47.187Z,31.19
2019-06-01T12:27:16.955Z,31.90
2019-06-01T12:29:47.857Z,32.84
2019-06-01T12:32:17.818Z,33.79
2019-06-01T12:34:48.484Z,34.85
2019-06-01T12:37:35.925Z,34.98
2019-06-01T12:39:52.188Z,34.35
2019-06-01T12:42:20.785Z,33.73
2019-06-01T12:44:50.243Z,34.00
2019-06-01T12:47:19.714Z,34.79
2019-06-01T12:49:49.205Z,34.58
2019-06-01T12:52:18.760Z,33.78
2019-06-01T12:54:49.030Z,33.11
2019-06-01T12:57:18.644Z,32.75
2019-06-01T12:59:48.189Z,32.45
2019-06-01T13:02:17.707Z,31.87
2019-06-01T13:04:47.240Z,31.36
2019-06-01T13:07:16.712Z,30.79
2019-06-01T13:09:46.283Z,30.16
2019-06-01T13:12:15.962Z,29.42
2019-06-01T13:14:45.437Z,29.34
2019-06-01T13:17:14.915Z,29.57
2019-06-01T13:19:45.266Z,30.05
2019-06-01T13:22:14.986Z,29.87
2019-06-01T13:24:45.775Z,29.72
2019-06-01T13:27:15.536Z,29.81
2019-06-01T13:29:45.815Z,31.42
2019-06-01T13:32:15.358Z,31.24
2019-06-01T13:34:44.859Z,30.86
2019-06-01T13:37:14.326Z,30.87
2019-06-01T13:39:45.179Z,30.76
2019-06-01T13:42:15.029Z,30.38
2019-06-01T13:44:45.410Z,30.03
2019-06-01T13:47:15.076Z,31.58
2019-06-01T13:49:46.263Z,34.61
2019-06-01T13:52:15.805Z,36.59
2019-06-01T13:54:46.411Z,38.30
2019-06-01T13:57:16.064Z,39.58
2019-06-01T13:59:46.846Z,40.11
2019-06-01T14:02:16.604Z,40.02
2019-06-01T14:04:47.483Z,38.69
2019-06-01T14:07:17.056Z,37.11
2019-06-01T14:09:47.092Z,36.44
2019-06-01T14:12:16.697Z,36.09
2019-06-01T14:14:47.401Z,37.05
2019-06-01T14:17:16.925Z,38.24
2019-06-01T14:19:47.555Z,37.43
2019-06-01T14:22:17.179Z,36.58
2019-06-01T14:24:53.999Z,34.87
2019-06-01T14:27:17.934Z,35.10
2019-06-01T14:29:48.193Z,35.71
2019-06-01T14:32:18.166Z,36.36
2019-06-01T14:34:48.572Z,36.01
2019-06-01T14:37:18.111Z,36.44
2019-06-01T14:39:48.759Z,36.68
2019-06-01T14:42:19.234Z,35.56
2019-06-01T14:44:49.280Z,35.08
2019-06-01T14:47:18.957Z,34.43
2019-06-01T14:49:49.472Z,33.83
2019-06-01T14:52:18.956Z,32.85
2019-06-01T14:54:49.543Z,32.31
2019-06-01T14:57:19.201Z,31.62
2019-06-01T14:59:50.309Z,31.28
2019-06-01T15:02:20.466Z,31.09
2019-06-01T15:04:50.121Z,31.20
2019-06-01T15:07:19.998Z,31.17
2019-06-01T15:09:50.108Z,30.90
2019-06-01T15:12:20.015Z,30.35
2019-06-01T15:14:50.793Z,29.93
2019-06-01T15:17:20.861Z,29.53
2019-06-01T15:19:50.276Z,29.10
2019-06-01T15:22:20.055Z,28.80
2019-06-01T15:24:52.268Z,28.69
2019-06-01T15:27:21.830Z,28.68
2019-06-01T15:29:52.629Z,28.70
2019-06-01T15:32:22.280Z,28.68
2019-06-01T15:34:52.404Z,28.83
2019-06-01T15:37:22.080Z,29.16
2019-06-01T15:39:52.586Z,29.33
2019-06-01T15:42:22.386Z,29.32
2019-06-01T15:44:52.953Z,29.53
2019-06-01T15:47:22.672Z,30.16
2019-06-01T15:49:53.526Z,30.72
2019-06-01T15:52:23.144Z,31.25
2019-06-01T15:54:54.141Z,31.42
2019-06-01T15:57:23.898Z,31.57
2019-06-01T15:59:54.480Z,31.79
2019-06-01T16:02:24.048Z,31.72
2019-06-01T16:04:54.864Z,31.72
2019-06-01T16:07:24.544Z,31.93
2019-06-01T16:09:55.307Z,32.16
2019-06-01T16:12:24.941Z,32.04
2019-06-01T16:14:55.456Z,31.49
2019-06-01T16:17:24.961Z,31.24
2019-06-01T16:19:55.815Z,30.74
2019-06-01T16:22:25.361Z,30.57
2019-06-01T16:24:56.150Z,30.28
2019-06-01T16:27:25.814Z,30.00
2019-06-01T16:29:55.285Z,29.78
2019-06-01T16:32:25.242Z,29.46
2019-06-01T16:34:54.912Z,29.25
2019-06-01T16:37:24.398Z,29.13
2019-06-01T16:39:59.743Z,28.82
2019-06-01T16:42:25.095Z,28.49
2019-06-01T16:44:55.332Z,28.34
2019-06-01T16:47:24.862Z,28.05
2019-06-01T16:49:55.671Z,27.75
2019-06-01T16:52:25.281Z,27.62
2019-06-01T16:54:56.111Z,27.54
2019-06-01T16:57:25.762Z,27.50
2019-06-01T16:59:56.337Z,27.61
2019-06-01T17:02:25.875Z,27.66
2019-06-01T17:04:56.471Z,27.75
2019-06-01T17:07:26.058Z,28.03
2019-06-01T17:09:56.565Z,28.42
2019-06-01T17:12:26.197Z,28.56
2019-06-01T17:14:56.758Z,28.42
2019-06-01T17:17:26.418Z,28.18
2019-06-01T17:19:56.941Z,27.87
2019-06-01T17:22:26.570Z,27.61
2019-06-01T17:24:56.069Z,27.32
2019-06-01T17:27:25.499Z,27.14
2019-06-01T17:29:55.099Z,26.98
2019-06-01T17:32:24.933Z,26.74
2019-06-01T17:34:54.608Z,26.61
2019-06-01T17:37:24.025Z,26.48
2019-06-01T17:39:53.500Z,26.35
2019-06-01T17:42:23.114Z,26.34
2019-06-01T17:44:52.569Z,26.29
2019-06-01T17:47:22.043Z,26.17
2019-06-01T17:49:52.691Z,26.09
2019-06-01T17:52:22.217Z,26.02
2019-06-01T17:54:51.728Z,25.98
2019-06-01T17:57:21.301Z,26.06
2019-06-01T17:59:50.761Z,26.17
2019-06-01T18:02:20.229Z,26.28
2019-06-01T18:04:49.725Z,26.39
2019-06-01T18:07:19.230Z,26.44
2019-06-01T18:09:48.709Z,26.38
2019-06-01T18:12:18.122Z,26.24
2019-06-01T18:14:47.585Z,26.06
2019-06-01T18:17:17.099Z,25.89
2019-06-01T18:19:46.660Z,25.78
2019-06-01T18:22:16.144Z,25.66
2019-06-01T18:24:45.659Z,25.55
2019-06-01T18:27:15.129Z,25.40
2019-06-01T18:29:48.779Z,25.21
2019-06-01T18:32:15.845Z,25.15
2019-06-01T18:34:45.321Z,25.05
2019-06-01T18:37:14.828Z,24.98
2019-06-01T18:39:47.832Z,24.91
2019-06-01T18:42:18.634Z,24.79
2019-06-01T18:44:46.644Z,24.69
2019-06-01T18:47:31.436Z,24.63
2019-06-01T18:49:47.283Z,24.62
2019-06-01T18:52:16.777Z,24.55
2019-06-01T18:54:46.360Z,24.46
2019-06-01T18:57:20.832Z,24.34
2019-06-01T18:59:47.063Z,24.29
2019-06-01T19:02:16.460Z,24.28
2019-06-01T19:04:46.944Z,24.23
2019-06-01T19:07:16.427Z,24.15
2019-06-01T19:09:47.383Z,24.09
2019-06-01T19:12:16.968Z,23.98
2019-06-01T19:14:46.437Z,23.92
2019-06-01T19:17:16.561Z,23.88
2019-06-01T19:19:47.794Z,23.82
2019-06-01T19:22:17.677Z,23.80
2019-06-01T19:24:47.183Z,23.71
2019-06-01T19:27:24.185Z,23.67
2019-06-01T19:29:54.222Z,23.65
2019-06-01T19:32:23.622Z,23.59
2019-06-01T19:34:53.852Z,23.55
2019-06-01T19:37:25.153Z,23.47
2019-06-01T19:39:55.365Z,23.41
2019-06-01T19:42:24.872Z,23.32
2019-06-01T19:44:54.377Z,23.31
2019-06-01T19:47:23.881Z,23.27
2019-06-01T19:50:14.215Z,23.23
2019-06-01T19:52:43.776Z,23.24
2019-06-01T19:55:13.245Z,23.14
2019-06-01T19:57:42.758Z,23.10
2019-06-01T20:00:12.215Z,23.05
2019-06-01T20:02:41.701Z,23.01
2019-06-01T20:05:12.938Z,22.93
2019-06-01T20:07:42.554Z,22.84
2019-06-01T20:10:12.238Z,22.84
2019-06-01T20:12:41.866Z,22.75
2019-06-01T20:18:06.929Z,22.63
2019-06-01T20:20:39.602Z,22.56
2019-06-01T20:24:25.963Z,22.54
2019-06-01T20:26:40.360Z,22.50
2019-06-01T20:29:51.089Z,22.46
2019-06-01T20:32:24.570Z,22.36
2019-06-01T20:37:45.593Z,22.25
2019-06-01T20:42:20.362Z,22.17
2019-06-01T20:45:56.671Z,22.05
2019-06-01T20:48:31.100Z,22.02
2019-06-01T20:51:55.183Z,21.94
2019-06-01T20:53:51.630Z,21.87
2019-06-01T20:56:28.682Z,21.90
2019-06-01T20:59:02.270Z,21.96
2019-06-01T21:04:59.182Z,21.82
2019-06-01T21:07:47.590Z,21.80
2019-06-01T21:10:14.031Z,21.81
2019-06-01T21:13:37.248Z,21.85
2019-06-01T21:15:32.756Z,21.78
2019-06-01T21:18:31.871Z,21.77
2019-06-01T21:20:49.038Z,21.77
2019-06-01T21:26:09.028Z,21.70
2019-06-01T21:28:40.455Z,21.69
2019-06-01T21:31:09.966Z,21.70
2019-06-01T21:33:39.496Z,21.66
2019-06-01T21:36:09.054Z,21.63
2019-06-01T21:38:38.628Z,21.60
2019-06-01T21:41:08.147Z,21.66
2019-06-01T21:43:37.620Z,21.60
2019-06-01T21:46:07.099Z,21.51
2019-06-01T21:48:36.631Z,21.41
2019-06-01T21:51:06.152Z,21.41
2019-06-01T21:53:35.636Z,21.43
2019-06-01T21:56:05.124Z,21.40
2019-06-01T21:58:34.696Z,21.35
2019-06-01T22:01:04.687Z,21.37
2019-06-01T22:03:34.304Z,21.35
2019-06-01T22:06:03.821Z,21.26
2019-06-01T22:08:33.314Z,21.22
2019-06-01T22:11:02.770Z,21.22
2019-06-01T22:13:32.226Z,21.19
2019-06-01T22:16:01.820Z,21.15
2019-06-01T22:18:31.696Z,21.05
2019-06-01T22:21:01.274Z,21.03
2019-06-01T22:23:30.756Z,21.02
2019-06-01T22:26:00.360Z,20.93
2019-06-01T22:28:29.840Z,20.83
2019-06-01T22:30:59.343Z,20.78
2019-06-01T22:33:28.964Z,20.68
2019-06-01T22:35:58.488Z,20.62
2019-06-01T22:38:27.933Z,20.60
2019-06-01T22:40:57.519Z,20.57
2019-06-01T22:43:43.502Z,20.52
2019-06-01T22:45:58.343Z,20.44
2019-06-01T22:48:29.158Z,20.37
2019-06-01T22:50:58.900Z,20.30
2019-06-01T22:53:28.518Z,20.26
2019-06-01T22:55:57.950Z,20.17
2019-06-01T22:58:27.505Z,20.13
2019-06-01T23:00:57.069Z,20.15
2019-06-01T23:03:27.951Z,20.11
2019-06-01T23:05:57.679Z,20.12
2019-06-01T23:08:27.407Z,20.13
2019-06-01T23:10:57.124Z,20.04
2019-06-01T23:13:26.737Z,20.02
2019-06-01T23:15:56.342Z,19.99
2019-06-01T23:18:25.810Z,20.09
2019-06-01T23:20:55.284Z,20.07
2019-06-01T23:23:25.952Z,20.06
2019-06-01T23:25:55.565Z,20.08
2019-06-01T23:28:26.145Z,20.12
2019-06-01T23:30:55.849Z,20.17
2019-06-01T23:33:26.873Z,20.18
2019-06-01T23:35:56.521Z,20.17
2019-06-01T23:38:26.613Z,20.18
2019-06-01T23:40:56.323Z,20.23
2019-06-01T23:43:26.931Z,20.25
2019-06-01T23:45:56.597Z,20.23
2019-06-01T23:48:27.188Z,20.22
2019-06-01T23:50:56.715Z,20.21
2019-06-01T23:53:27.450Z,20.19
2019-06-01T23:55:57.070Z,20.14
2019-06-01T23:58:26.575Z,20.15
